createdAt,value
2023-02-25T00:02:08.541Z,13.80
2023-02-25T00:04:38.084Z,14.37
2023-02-25T00:07:06.963Z,15.70
2023-02-25T00:09:37.415Z,15.87
2023-02-25T00:12:06.507Z,16.13
2023-02-25T00:14:35.405Z,16.80
2023-02-25T00:17:04.469Z,17.10
2023-02-25T00:19:33.267Z,18.60
2023-02-25T00:22:02.105Z,18.13
2023-02-25T00:24:30.897Z,21.13
2023-02-25T00:27:01.602Z,17.53
2023-02-25T00:29:30.500Z,18.23
2023-02-25T00:31:59.750Z,19.67
2023-02-25T00:34:29.216Z,17.63
2023-02-25T00:36:58.639Z,18.67
2023-02-25T00:39:42.092Z,16.77
2023-02-25T00:42:14.320Z,20.50
2023-02-25T00:44:46.243Z,22.13
2023-02-25T00:47:16.258Z,18.30
2023-02-25T00:49:48.333Z,18.30
2023-02-25T00:52:17.627Z,20.87
2023-02-25T00:54:48.386Z,18.67
2023-02-25T00:57:18.837Z,19.40
2023-02-25T00:59:47.821Z,21.67
2023-02-25T01:02:16.636Z,20.33
2023-02-25T01:04:45.408Z,25.93
2023-02-25T01:07:14.221Z,20.70
2023-02-25T01:09:43.251Z,21.57
2023-02-25T01:12:12.318Z,20.43
2023-02-25T01:14:42.995Z,20.70
2023-02-25T01:17:11.889Z,21.03
2023-02-25T01:19:40.840Z,22.43
2023-02-25T01:22:09.611Z,18.23
2023-02-25T01:24:38.548Z,22.97
2023-02-25T01:27:07.780Z,18.47
2023-02-25T01:29:40.343Z,20.83
2023-02-25T01:32:14.696Z,22.70
2023-02-25T01:34:43.666Z,17.73
2023-02-25T01:37:12.393Z,21.57
2023-02-25T01:39:41.567Z,19.07
2023-02-25T01:42:16.418Z,20.90
2023-02-25T01:45:24.648Z,19.43
2023-02-25T01:47:58.382Z,21.10
2023-02-25T01:50:31.944Z,20.37
2023-02-25T01:53:03.932Z,18.50
2023-02-25T01:55:33.104Z,17.07
2023-02-25T01:58:02.815Z,19.57
2023-02-25T02:00:33.893Z,18.90
2023-02-25T02:03:05.516Z,16.73
2023-02-25T02:05:43.803Z,19.80
2023-02-25T02:08:12.966Z,18.33
2023-02-25T02:10:41.829Z,21.97
2023-02-25T02:13:10.625Z,17.27
2023-02-25T02:15:47.003Z,18.83
2023-02-25T02:18:19.333Z,20.20
2023-02-25T02:20:59.360Z,19.27
2023-02-25T02:23:57.185Z,20.07
2023-02-25T02:26:44.633Z,17.30
2023-02-25T02:29:47.842Z,16.40
2023-02-25T02:32:27.643Z,20.20
2023-02-25T02:35:05.720Z,19.83
2023-02-25T02:37:43.632Z,16.87
2023-02-25T02:40:24.173Z,17.40
2023-02-25T02:43:06.791Z,18.73
2023-02-25T02:45:44.916Z,15.43
2023-02-25T02:48:19.090Z,16.03
2023-02-25T02:50:52.343Z,16.50
2023-02-25T02:53:28.509Z,16.30
2023-02-25T02:56:01.399Z,16.57
2023-02-25T02:58:36.160Z,19.17
2023-02-25T03:01:08.944Z,17.20
2023-02-25T03:03:42.882Z,20.97
2023-02-25T03:06:14.330Z,17.50
2023-02-25T03:08:45.941Z,18.17
2023-02-25T03:11:16.024Z,15.83
2023-02-25T03:13:47.439Z,15.47
2023-02-25T03:16:24.344Z,15.33
2023-02-25T03:19:00.551Z,15.43
2023-02-25T03:21:35.186Z,15.03
2023-02-25T03:24:06.414Z,16.37
2023-02-25T03:26:36.524Z,16.20
2023-02-25T03:29:06.300Z,14.73
2023-02-25T03:31:43.069Z,16.37
2023-02-25T03:34:17.207Z,15.30
2023-02-25T03:36:50.964Z,19.10
2023-02-25T03:39:23.935Z,17.10
2023-02-25T03:41:55.952Z,17.17
2023-02-25T03:44:29.075Z,16.57
2023-02-25T03:46:59.635Z,16.60
2023-02-25T03:49:35.647Z,16.23
2023-02-25T03:52:08.810Z,18.97
2023-02-25T03:54:37.807Z,19.40
2023-02-25T03:57:07.106Z,15.20
2023-02-25T03:59:36.085Z,20.20
2023-02-25T04:02:05.072Z,18.83
2023-02-25T04:04:35.548Z,18.83
2023-02-25T04:07:04.467Z,18.37
2023-02-25T04:09:33.323Z,16.93
2023-02-25T04:12:02.242Z,16.77
2023-02-25T04:14:32.057Z,18.50
2023-02-25T04:17:00.941Z,16.53
2023-02-25T04:19:29.808Z,12.40
2023-02-25T04:22:01.072Z,14.07
2023-02-25T04:24:29.809Z,12.50
2023-02-25T04:27:01.611Z,14.87
2023-02-25T04:29:30.715Z,13.53
2023-02-25T04:31:59.689Z,11.93
2023-02-25T04:34:28.665Z,12.63
2023-02-25T04:36:57.357Z,10.00
2023-02-25T04:39:27.585Z,12.13
2023-02-25T04:41:56.365Z,10.27
2023-02-25T04:44:25.673Z,14.87
2023-02-25T04:46:54.628Z,10.80
2023-02-25T04:49:24.560Z,8.57
2023-02-25T04:51:54.013Z,9.17
2023-02-25T04:54:23.703Z,12.27
2023-02-25T04:56:53.874Z,9.30
2023-02-25T04:59:22.718Z,9.27
2023-02-25T05:01:51.500Z,11.57
2023-02-25T05:04:20.286Z,12.40
2023-02-25T05:06:48.990Z,8.23
2023-02-25T05:09:17.887Z,10.00
2023-02-25T05:11:46.664Z,7.63
2023-02-25T05:14:16.978Z,9.73
2023-02-25T05:16:46.289Z,8.17
2023-02-25T05:19:17.987Z,10.40
2023-02-25T05:21:47.100Z,10.13
2023-02-25T05:24:16.524Z,6.60
2023-02-25T05:26:45.853Z,7.30
2023-02-25T05:29:17.244Z,7.33
2023-02-25T05:31:46.258Z,5.03
2023-02-25T05:34:15.196Z,6.07
2023-02-25T05:36:43.999Z,5.67
2023-02-25T05:39:14.815Z,6.03
2023-02-25T05:41:43.603Z,6.27
2023-02-25T05:44:12.789Z,5.70
2023-02-25T05:46:42.939Z,4.87
2023-02-25T05:49:11.965Z,6.67
2023-02-25T05:51:40.795Z,5.73
2023-02-25T05:54:09.653Z,5.80
2023-02-25T05:56:38.357Z,4.83
2023-02-25T05:59:07.289Z,5.07
2023-02-25T06:01:36.075Z,5.63
2023-02-25T06:04:06.285Z,5.93
2023-02-25T06:06:35.147Z,7.00
2023-02-25T06:09:05.940Z,6.67
2023-02-25T06:11:34.867Z,5.47
2023-02-25T06:14:03.703Z,4.33
2023-02-25T06:16:33.164Z,4.57
2023-02-25T06:19:02.949Z,3.97
2023-02-25T06:21:34.212Z,3.73
2023-02-25T06:24:05.684Z,5.27
2023-02-25T06:26:35.469Z,2.87
2023-02-25T06:29:04.330Z,3.37
2023-02-25T06:31:34.644Z,4.93
2023-02-25T06:34:03.610Z,4.20
2023-02-25T06:36:34.460Z,4.20
2023-02-25T06:39:03.367Z,4.03
2023-02-25T06:41:32.338Z,3.43
2023-02-25T06:44:01.276Z,3.93
2023-02-25T06:46:30.255Z,3.80
2023-02-25T06:48:59.347Z,2.87
2023-02-25T06:51:28.173Z,3.07
2023-02-25T06:53:58.440Z,2.73
2023-02-25T06:56:29.112Z,3.43
2023-02-25T06:58:59.843Z,4.83
2023-02-25T07:01:28.798Z,2.70
2023-02-25T07:03:57.630Z,3.67
2023-02-25T07:06:26.406Z,5.33
2023-02-25T07:08:55.190Z,3.43
2023-02-25T07:11:31.789Z,5.20
2023-02-25T07:14:00.589Z,3.20
2023-02-25T07:16:30.361Z,4.47
2023-02-25T07:19:01.768Z,3.87
2023-02-25T07:21:31.149Z,2.77
2023-02-25T07:24:00.377Z,4.10
2023-02-25T07:26:30.662Z,4.90
2023-02-25T07:29:00.750Z,4.60
2023-02-25T07:31:30.135Z,4.50
2023-02-25T07:34:03.514Z,5.43
2023-02-25T07:36:33.743Z,6.03
2023-02-25T07:39:04.175Z,5.47
2023-02-25T07:41:34.365Z,5.37
2023-02-25T07:44:06.458Z,6.00
2023-02-25T07:46:35.388Z,7.03
2023-02-25T07:49:04.316Z,6.70
2023-02-25T07:51:33.255Z,5.90
2023-02-25T07:54:02.236Z,3.30
2023-02-25T07:56:33.353Z,3.77
2023-02-25T07:59:02.421Z,3.20
2023-02-25T08:01:34.755Z,2.73
2023-02-25T08:04:06.974Z,7.53
2023-02-25T08:06:38.475Z,4.23
2023-02-25T08:09:07.860Z,3.03
2023-02-25T08:11:38.381Z,2.23
2023-02-25T08:14:07.277Z,2.57
2023-02-25T08:16:36.118Z,3.40
2023-02-25T08:19:05.865Z,2.80
2023-02-25T08:21:35.017Z,5.20
2023-02-25T08:24:03.782Z,3.07
2023-02-25T08:26:32.561Z,3.47
2023-02-25T08:29:02.783Z,4.03
2023-02-25T08:31:31.925Z,5.57
2023-02-25T08:34:01.016Z,5.33
2023-02-25T08:36:31.568Z,6.40
2023-02-25T08:39:01.779Z,4.33
2023-02-25T08:41:31.346Z,5.93
2023-02-25T08:44:02.880Z,7.77
2023-02-25T08:46:34.414Z,11.37
2023-02-25T08:49:03.902Z,7.43
2023-02-25T08:51:35.086Z,13.67
2023-02-25T08:54:07.688Z,8.53
2023-02-25T08:56:37.533Z,6.97
2023-02-25T08:59:07.647Z,4.57
2023-02-25T09:01:50.240Z,9.00
2023-02-25T09:04:21.557Z,7.00
2023-02-25T09:06:52.661Z,10.23
2023-02-25T09:09:22.358Z,8.03
2023-02-25T09:11:51.641Z,5.80
2023-02-25T09:14:22.846Z,5.20
2023-02-25T09:16:51.841Z,4.53
2023-02-25T09:19:20.905Z,8.17
2023-02-25T09:21:49.783Z,5.30
2023-02-25T09:24:19.120Z,5.97
2023-02-25T09:26:48.391Z,4.60
2023-02-25T09:29:17.718Z,4.47
2023-02-25T09:31:47.948Z,6.20
2023-02-25T09:34:16.908Z,5.80
2023-02-25T09:36:45.605Z,4.60
2023-02-25T09:39:14.476Z,5.17
2023-02-25T09:41:50.943Z,4.50
2023-02-25T09:44:23.567Z,5.47
2023-02-25T09:46:57.563Z,5.97
2023-02-25T09:49:32.952Z,4.03
2023-02-25T09:52:08.917Z,4.37
2023-02-25T09:54:44.868Z,3.90
2023-02-25T09:57:19.068Z,4.33
2023-02-25T09:59:49.014Z,4.63
2023-02-25T10:02:28.409Z,5.37
2023-02-25T10:05:18.612Z,5.17
2023-02-25T10:07:58.098Z,4.67
2023-02-25T10:10:34.667Z,5.10
2023-02-25T10:13:14.801Z,7.37
2023-02-25T10:15:55.598Z,4.40
2023-02-25T10:18:43.024Z,4.10
2023-02-25T10:21:22.280Z,6.60
2023-02-25T10:24:05.039Z,3.20
2023-02-25T10:26:39.084Z,2.40
2023-02-25T10:29:12.573Z,3.10
2023-02-25T10:31:45.701Z,2.30
2023-02-25T10:34:22.639Z,2.60
2023-02-25T10:36:56.244Z,2.33
2023-02-25T10:39:26.146Z,2.27
2023-02-25T10:41:55.573Z,2.40
2023-02-25T10:44:24.294Z,2.23
2023-02-25T10:46:57.169Z,2.90
2023-02-25T10:49:30.096Z,2.90
2023-02-25T10:52:02.950Z,2.67
2023-02-25T10:54:33.028Z,4.50
2023-02-25T10:57:08.454Z,2.77
2023-02-25T10:59:39.515Z,2.80
2023-02-25T11:02:23.521Z,2.40
2023-02-25T11:04:54.889Z,2.57
2023-02-25T11:07:34.128Z,4.03
2023-02-25T11:10:17.595Z,14.53
2023-02-25T11:12:48.308Z,24.97
2023-02-25T11:15:44.451Z,5.23
2023-02-25T11:18:21.739Z,5.47
2023-02-25T11:20:54.674Z,3.63
2023-02-25T11:23:28.822Z,3.00
2023-02-25T11:25:57.855Z,2.43
2023-02-25T11:28:32.819Z,2.90
2023-02-25T11:31:10.163Z,2.90
2023-02-25T11:33:43.273Z,2.10
2023-02-25T11:36:14.198Z,2.30
2023-02-25T11:38:43.904Z,2.23
2023-02-25T11:41:18.690Z,1.73
2023-02-25T11:43:47.738Z,1.70
2023-02-25T11:46:23.217Z,2.87
2023-02-25T11:48:56.608Z,2.60
2023-02-25T11:51:29.541Z,2.23
2023-02-25T11:54:19.351Z,2.33
2023-02-25T11:56:51.651Z,2.43
2023-02-25T11:59:32.627Z,1.80
2023-02-25T12:02:20.511Z,0.90
2023-02-25T12:05:17.702Z,1.00
2023-02-25T12:08:26.044Z,1.20
2023-02-25T12:11:35.376Z,1.60
2023-02-25T12:14:39.749Z,1.07
2023-02-25T12:17:34.745Z,0.80
2023-02-25T12:20:39.070Z,1.77
2023-02-25T12:23:56.334Z,1.10
2023-02-25T12:26:44.042Z,0.97
2023-02-25T12:29:24.640Z,0.90
2023-02-25T12:32:21.499Z,1.10
2023-02-25T12:35:23.129Z,1.80
2023-02-25T12:38:27.957Z,3.33
2023-02-25T12:41:17.009Z,3.90
2023-02-25T12:43:51.765Z,3.07
2023-02-25T12:46:33.104Z,4.97
2023-02-25T12:49:35.472Z,2.90
2023-02-25T12:52:35.618Z,2.30
2023-02-25T12:55:45.935Z,3.07
2023-02-25T12:58:37.248Z,2.33
2023-02-25T13:01:29.255Z,1.30
2023-02-25T13:04:32.524Z,5.90
2023-02-25T13:07:45.457Z,2.37
2023-02-25T13:10:31.929Z,2.70
2023-02-25T13:13:17.116Z,3.00
2023-02-25T13:15:57.033Z,2.73
2023-02-25T13:18:36.886Z,3.27
2023-02-25T13:21:33.365Z,3.60
2023-02-25T13:24:20.812Z,1.60
2023-02-25T13:27:24.219Z,1.23
2023-02-25T13:30:18.271Z,2.30
2023-02-25T13:32:55.192Z,1.30
2023-02-25T13:35:37.446Z,1.50
2023-02-25T13:38:24.989Z,2.73
2023-02-25T13:41:08.797Z,3.03
2023-02-25T13:44:03.141Z,4.00
2023-02-25T13:46:53.951Z,6.87
2023-02-25T13:50:11.893Z,3.40
2023-02-25T13:52:53.989Z,3.03
2023-02-25T13:55:38.833Z,2.90
2023-02-25T13:58:24.836Z,4.70
2023-02-25T14:01:10.535Z,4.67
2023-02-25T14:04:04.784Z,2.57
2023-02-25T14:06:48.848Z,3.50
2023-02-25T14:09:36.628Z,4.03
2023-02-25T14:12:16.286Z,4.27
2023-02-25T14:15:08.405Z,2.00
2023-02-25T14:18:05.755Z,1.77
2023-02-25T14:20:44.197Z,3.30
2023-02-25T14:23:23.540Z,3.53
2023-02-25T14:26:16.770Z,2.90
2023-02-25T14:29:00.748Z,2.23
2023-02-25T14:31:39.821Z,4.17
2023-02-25T14:34:24.966Z,4.00
2023-02-25T14:37:05.576Z,2.47
2023-02-25T14:39:45.544Z,2.00
2023-02-25T14:42:39.232Z,1.47
2023-02-25T14:45:19.745Z,3.87
2023-02-25T14:47:55.488Z,2.53
2023-02-25T14:50:32.287Z,4.60
2023-02-25T14:53:35.704Z,5.37
2023-02-25T14:56:37.897Z,4.67
2023-02-25T14:59:28.486Z,3.30
2023-02-25T15:02:25.398Z,1.90
2023-02-25T15:05:17.630Z,2.80
2023-02-25T15:08:14.904Z,2.37
2023-02-25T15:10:53.890Z,2.60
2023-02-25T15:13:39.198Z,2.80
2023-02-25T15:16:48.704Z,1.83
2023-02-25T15:19:42.337Z,1.23
2023-02-25T15:22:23.897Z,2.17
2023-02-25T15:24:54.026Z,1.03
2023-02-25T15:27:48.700Z,1.37
2023-02-25T15:30:20.576Z,2.07
2023-02-25T15:33:15.946Z,2.00
2023-02-25T15:36:00.542Z,1.30
2023-02-25T15:38:45.522Z,2.27
2023-02-25T15:41:42.804Z,2.80
2023-02-25T15:44:37.975Z,2.60
2023-02-25T15:47:27.605Z,4.03
2023-02-25T15:49:59.886Z,1.50
2023-02-25T15:52:52.627Z,2.63
2023-02-25T15:55:33.934Z,1.63
2023-02-25T15:58:03.427Z,2.63
2023-02-25T16:00:54.406Z,3.80
2023-02-25T16:03:29.473Z,2.73
2023-02-25T16:06:04.880Z,4.17
2023-02-25T16:08:39.741Z,3.03
2023-02-25T16:11:20.448Z,1.80
2023-02-25T16:13:49.621Z,3.80
2023-02-25T16:16:18.963Z,1.77
2023-02-25T16:18:50.571Z,3.00
2023-02-25T16:21:27.227Z,1.90
2023-02-25T16:23:56.187Z,1.70
2023-02-25T16:26:45.258Z,4.10
2023-02-25T16:29:35.054Z,2.73
2023-02-25T16:32:07.327Z,3.03
2023-02-25T16:34:43.252Z,4.17
2023-02-25T16:37:18.576Z,5.97
2023-02-25T16:39:48.098Z,5.27
2023-02-25T16:42:19.137Z,3.13
2023-02-25T16:44:56.366Z,3.67
2023-02-25T16:47:28.046Z,4.97
2023-02-25T16:49:59.265Z,2.10
2023-02-25T16:52:32.787Z,5.50
2023-02-25T16:55:05.564Z,2.07
2023-02-25T16:57:36.386Z,3.17
2023-02-25T17:00:15.837Z,6.47
2023-02-25T17:02:47.098Z,3.57
2023-02-25T17:05:29.069Z,7.27
2023-02-25T17:08:02.055Z,5.07
2023-02-25T17:10:34.714Z,4.27
2023-02-25T17:13:05.273Z,4.53
2023-02-25T17:15:37.910Z,3.40
2023-02-25T17:18:11.365Z,2.00
2023-02-25T17:20:41.032Z,4.77
2023-02-25T17:23:14.599Z,5.53
2023-02-25T17:25:46.600Z,4.23
2023-02-25T17:28:23.690Z,5.83
2023-02-25T17:30:53.135Z,3.67
2023-02-25T17:33:26.360Z,3.57
2023-02-25T17:35:59.956Z,3.53
2023-02-25T17:38:30.575Z,4.50
2023-02-25T17:40:59.692Z,3.93
2023-02-25T17:43:35.706Z,8.23
2023-02-25T17:46:15.750Z,5.10
2023-02-25T17:48:51.395Z,4.07
2023-02-25T17:51:28.158Z,4.40
2023-02-25T17:54:01.137Z,4.10
2023-02-25T17:56:31.972Z,3.40
2023-02-25T17:59:02.610Z,3.30
2023-02-25T18:01:44.843Z,4.83
2023-02-25T18:04:24.441Z,5.87
2023-02-25T18:06:55.401Z,7.37
2023-02-25T18:09:39.079Z,3.80
2023-02-25T18:12:14.817Z,4.83
2023-02-25T18:14:45.787Z,7.90
2023-02-25T18:17:23.177Z,4.83
2023-02-25T18:19:55.330Z,7.67
2023-02-25T18:22:28.938Z,6.73
2023-02-25T18:25:01.856Z,4.53
2023-02-25T18:27:32.795Z,4.43
2023-02-25T18:30:20.680Z,3.50
2023-02-25T18:32:49.727Z,6.43
2023-02-25T18:35:19.679Z,6.17
2023-02-25T18:37:50.724Z,5.60
2023-02-25T18:40:25.634Z,5.63
2023-02-25T18:42:54.705Z,3.67
2023-02-25T18:45:25.302Z,5.63
2023-02-25T18:47:56.861Z,6.50
2023-02-25T18:50:26.259Z,2.73
2023-02-25T18:52:55.732Z,4.67
2023-02-25T18:55:28.324Z,4.00
2023-02-25T18:57:57.611Z,5.03
2023-02-25T19:00:28.400Z,8.37
2023-02-25T19:02:59.791Z,3.60
2023-02-25T19:05:29.762Z,3.77
2023-02-25T19:07:58.913Z,5.50
2023-02-25T19:10:30.937Z,3.67
2023-02-25T19:13:03.131Z,3.60
2023-02-25T19:15:32.045Z,4.10
2023-02-25T19:18:00.973Z,3.17
2023-02-25T19:20:29.695Z,3.30
2023-02-25T19:22:58.502Z,6.00
2023-02-25T19:25:30.478Z,4.17
2023-02-25T19:27:59.273Z,4.47
2023-02-25T19:30:32.021Z,4.40
2023-02-25T19:33:04.404Z,2.73
2023-02-25T19:35:35.607Z,5.03
2023-02-25T19:38:04.851Z,5.77
2023-02-25T19:40:35.388Z,4.30
2023-02-25T19:43:05.409Z,4.23
2023-02-25T19:45:34.670Z,4.73
2023-02-25T19:48:03.799Z,4.70
2023-02-25T19:50:34.847Z,3.97
2023-02-25T19:53:05.489Z,3.87
2023-02-25T19:55:36.346Z,5.40
2023-02-25T19:58:05.120Z,9.50
2023-02-25T20:00:33.877Z,4.53
2023-02-25T20:03:02.670Z,6.63
2023-02-25T20:05:31.422Z,3.47
2023-02-25T20:08:00.651Z,7.93
2023-02-25T20:10:29.442Z,8.30
2023-02-25T20:12:59.596Z,7.27
2023-02-25T20:15:28.405Z,8.47
2023-02-25T20:17:57.628Z,10.00
2023-02-25T20:20:26.693Z,7.07
2023-02-25T20:22:55.424Z,6.50
2023-02-25T20:25:24.284Z,7.73
2023-02-25T20:27:52.992Z,6.50
2023-02-25T20:30:23.675Z,7.87
2023-02-25T20:32:52.989Z,5.13
2023-02-25T20:35:26.102Z,8.90
2023-02-25T20:38:09.800Z,7.43
2023-02-25T20:40:38.726Z,8.17
2023-02-25T20:43:07.653Z,5.67
2023-02-25T20:45:38.623Z,5.93
2023-02-25T20:48:08.124Z,7.07
2023-02-25T20:50:38.284Z,5.70
2023-02-25T20:53:07.252Z,5.40
2023-02-25T20:55:36.188Z,7.20
2023-02-25T20:58:05.043Z,8.00
2023-02-25T21:00:34.849Z,7.13
2023-02-25T21:03:05.625Z,6.53
2023-02-25T21:05:34.428Z,5.47
2023-02-25T21:08:03.137Z,9.53
2023-02-25T21:10:31.935Z,5.90
2023-02-25T21:13:00.702Z,5.80
2023-02-25T21:15:29.776Z,7.03
2023-02-25T21:17:58.508Z,9.57
2023-02-25T21:20:28.693Z,8.77
2023-02-25T21:22:57.545Z,4.40
2023-02-25T21:25:26.363Z,5.20
2023-02-25T21:27:55.154Z,4.87
2023-02-25T21:30:24.176Z,3.97
2023-02-25T21:32:53.010Z,5.33
2023-02-25T21:35:25.144Z,6.10
2023-02-25T21:37:55.328Z,5.93
2023-02-25T21:40:24.118Z,4.80
2023-02-25T21:42:52.812Z,7.53
2023-02-25T21:45:21.536Z,5.30
2023-02-25T21:47:51.786Z,6.47
2023-02-25T21:50:20.747Z,3.87
2023-02-25T21:52:51.181Z,5.70
2023-02-25T21:55:21.378Z,3.20
2023-02-25T21:57:50.141Z,6.00
2023-02-25T22:00:19.784Z,6.47
2023-02-25T22:02:48.487Z,5.03
2023-02-25T22:05:17.336Z,4.93
2023-02-25T22:07:46.039Z,4.63
2023-02-25T22:10:15.144Z,4.33
2023-02-25T22:12:45.241Z,5.80
2023-02-25T22:15:14.033Z,6.70
2023-02-25T22:17:42.725Z,5.70
2023-02-25T22:20:12.831Z,6.17
2023-02-25T22:22:41.551Z,4.77
2023-02-25T22:25:10.452Z,3.33
2023-02-25T22:27:39.165Z,5.10
2023-02-25T22:30:10.913Z,8.03
2023-02-25T22:32:39.674Z,5.20
2023-02-25T22:35:08.948Z,3.10
2023-02-25T22:37:37.725Z,6.90
2023-02-25T22:40:07.573Z,4.70
2023-02-25T22:42:36.331Z,4.53
2023-02-25T22:45:05.672Z,3.53
2023-02-25T22:47:35.777Z,3.13
2023-02-25T22:50:04.737Z,4.63
2023-02-25T22:52:34.484Z,2.73
2023-02-25T22:55:03.192Z,6.87
2023-02-25T22:57:32.082Z,5.23
2023-02-25T23:00:00.842Z,6.47
2023-02-25T23:02:29.654Z,4.53
2023-02-25T23:05:00.691Z,5.93
2023-02-25T23:07:29.632Z,5.63
2023-02-25T23:09:58.382Z,4.93
2023-02-25T23:12:27.137Z,8.80
2023-02-25T23:14:55.889Z,6.63
2023-02-25T23:17:24.641Z,8.67
2023-02-25T23:19:59.200Z,6.83
2023-02-25T23:22:31.321Z,4.50
2023-02-25T23:25:00.574Z,6.23
2023-02-25T23:27:30.473Z,8.23
2023-02-25T23:29:59.253Z,6.70
2023-02-25T23:32:28.064Z,7.20
2023-02-25T23:34:56.908Z,6.30
2023-02-25T23:37:25.772Z,10.33
2023-02-25T23:39:55.895Z,7.40
2023-02-25T23:42:24.816Z,5.30
2023-02-25T23:44:53.530Z,6.93
2023-02-25T23:47:22.328Z,6.50
2023-02-25T23:49:51.083Z,6.80
2023-02-25T23:52:19.887Z,7.00
2023-02-25T23:54:48.644Z,6.23
2023-02-25T23:57:19.024Z,3.93
2023-02-25T23:59:48.069Z,6.57
